createdAt,value
2023-04-23T00:01:42.946Z,0.52
2023-04-23T00:04:14.002Z,0.45
2023-04-23T00:06:43.495Z,0.57
2023-04-23T00:09:15.099Z,0.50
2023-04-23T00:14:12.042Z,0.40
2023-04-23T00:16:58.807Z,1.23
2023-04-23T00:19:26.925Z,0.45
2023-04-23T00:21:54.983Z,0.90
2023-04-23T00:24:23.096Z,0.63
2023-04-23T00:26:53.205Z,0.45
2023-04-23T00:29:21.214Z,1.23
2023-04-23T00:31:49.405Z,0.70
2023-04-23T00:37:06.429Z,0.40
2023-04-23T00:39:35.474Z,0.30
2023-04-23T00:42:10.766Z,0.52
2023-04-23T00:44:40.494Z,0.30
2023-04-23T00:47:08.965Z,0.47
2023-04-23T00:49:37.727Z,0.75
2023-04-23T00:52:06.321Z,0.63
2023-04-23T00:54:34.371Z,0.50
2023-04-23T01:00:08.845Z,0.40
2023-04-23T01:02:38.701Z,0.40
2023-04-23T01:05:09.965Z,0.50
2023-04-23T01:07:38.383Z,0.77
2023-04-23T01:10:07.345Z,0.65
2023-04-23T01:12:35.734Z,0.50
2023-04-23T01:15:04.717Z,0.40
2023-04-23T01:17:34.672Z,0.70
2023-04-23T01:20:02.982Z,0.68
2023-04-23T01:22:31.184Z,0.70
2023-04-23T01:25:17.898Z,0.65
2023-04-23T01:27:46.031Z,0.60
2023-04-23T01:30:14.544Z,0.70
2023-04-23T01:32:43.590Z,0.50
2023-04-23T01:35:13.335Z,0.60
2023-04-23T01:37:43.600Z,0.55
2023-04-23T01:40:12.626Z,1.02
2023-04-23T01:42:41.754Z,1.30
2023-04-23T01:45:10.387Z,0.80
2023-04-23T01:47:38.479Z,0.80
2023-04-23T01:50:07.340Z,0.77
2023-04-23T01:52:35.413Z,0.43
2023-04-23T01:55:03.955Z,0.47
2023-04-23T01:57:32.051Z,0.60
2023-04-23T02:00:11.664Z,0.68
2023-04-23T02:02:44.383Z,0.52
2023-04-23T02:08:03.928Z,0.70
2023-04-23T02:10:32.082Z,0.77
2023-04-23T02:13:00.493Z,1.55
2023-04-23T02:15:28.689Z,2.05
2023-04-23T02:17:57.137Z,2.30
2023-04-23T02:20:25.803Z,2.17
2023-04-23T02:22:54.028Z,2.25
2023-04-23T02:25:22.156Z,1.75
2023-04-23T02:27:50.887Z,2.00
2023-04-23T02:30:18.869Z,1.50
2023-04-23T02:32:46.947Z,0.93
2023-04-23T02:35:14.949Z,1.10
2023-04-23T02:37:42.979Z,1.02
2023-04-23T02:40:11.476Z,0.90
2023-04-23T02:42:40.318Z,1.20
2023-04-23T02:45:10.272Z,1.55
2023-04-23T02:47:38.772Z,2.70
2023-04-23T02:50:07.951Z,2.90
2023-04-23T02:52:36.159Z,2.47
2023-04-23T02:55:04.754Z,2.53
2023-04-23T02:57:33.034Z,2.67
2023-04-23T03:00:01.229Z,3.17
2023-04-23T03:02:36.116Z,2.55
2023-04-23T03:05:06.263Z,3.22
2023-04-23T03:07:34.412Z,3.50
2023-04-23T03:10:02.651Z,2.70
2023-04-23T03:12:31.404Z,3.40
2023-04-23T03:14:59.430Z,2.78
2023-04-23T03:17:29.762Z,3.38
2023-04-23T03:19:57.942Z,3.25
2023-04-23T03:22:26.148Z,2.95
2023-04-23T03:25:12.767Z,2.80
2023-04-23T03:27:41.052Z,2.65
2023-04-23T03:30:09.731Z,3.15
2023-04-23T03:32:39.278Z,2.55
2023-04-23T03:35:08.842Z,2.58
2023-04-23T03:37:39.428Z,2.47
2023-04-23T03:40:09.494Z,3.13
2023-04-23T03:42:40.756Z,2.00
2023-04-23T03:45:10.326Z,1.80
2023-04-23T03:47:38.748Z,2.05
2023-04-23T03:50:10.500Z,2.13
2023-04-23T03:52:39.443Z,2.20
2023-04-23T03:55:12.416Z,2.10
2023-04-23T03:57:44.794Z,1.88
2023-04-23T04:00:20.949Z,2.15
2023-04-23T04:02:49.177Z,1.90
2023-04-23T04:05:17.354Z,1.83
2023-04-23T04:07:46.636Z,1.77
2023-04-23T04:10:15.912Z,1.90
2023-04-23T04:12:45.821Z,1.70
2023-04-23T04:15:14.807Z,2.30
2023-04-23T04:17:42.809Z,2.10
2023-04-23T04:20:14.296Z,1.90
2023-04-23T04:22:42.372Z,1.88
2023-04-23T04:25:30.123Z,2.67
2023-04-23T04:27:59.041Z,1.90
2023-04-23T04:30:27.198Z,1.85
2023-04-23T04:32:55.196Z,1.92
2023-04-23T04:35:23.455Z,2.13
2023-04-23T04:37:54.224Z,1.70
2023-04-23T04:40:22.293Z,2.13
2023-04-23T04:42:50.278Z,1.70
2023-04-23T04:45:18.596Z,1.92
2023-04-23T04:47:46.664Z,2.00
2023-04-23T04:50:14.641Z,1.70
2023-04-23T04:52:42.680Z,1.63
2023-04-23T04:55:10.740Z,1.90
2023-04-23T04:57:38.642Z,2.35
2023-04-23T05:00:28.477Z,1.88
2023-04-23T05:02:58.254Z,1.83
2023-04-23T05:05:28.222Z,1.95
2023-04-23T05:07:59.429Z,1.77
2023-04-23T05:10:27.493Z,1.80
2023-04-23T05:13:00.882Z,1.80
2023-04-23T05:18:14.352Z,1.50
2023-04-23T05:20:43.244Z,1.58
2023-04-23T05:23:11.599Z,1.33
2023-04-23T05:25:40.168Z,1.40
2023-04-23T05:28:09.067Z,1.70
2023-04-23T05:30:37.426Z,1.67
2023-04-23T05:33:05.553Z,1.80
2023-04-23T05:35:33.722Z,1.83
2023-04-23T05:38:03.014Z,2.10
2023-04-23T05:40:31.249Z,1.80
2023-04-23T05:42:59.817Z,1.50
2023-04-23T05:45:28.407Z,1.63
2023-04-23T05:47:56.574Z,1.65
2023-04-23T05:50:24.763Z,1.50
2023-04-23T05:52:52.760Z,1.58
2023-04-23T05:55:24.049Z,1.90
2023-04-23T05:57:52.078Z,1.77
2023-04-23T06:00:20.996Z,2.22
2023-04-23T06:02:49.206Z,2.10
2023-04-23T06:05:20.159Z,2.35
2023-04-23T06:07:48.315Z,2.00
2023-04-23T06:10:16.550Z,1.88
2023-04-23T06:12:44.563Z,2.10
2023-04-23T06:15:12.805Z,2.22
2023-04-23T06:17:41.481Z,2.08
2023-04-23T06:20:12.087Z,2.28
2023-04-23T06:22:40.378Z,2.25
2023-04-23T06:25:09.009Z,2.50
2023-04-23T06:27:37.170Z,2.80
2023-04-23T06:30:12.363Z,2.78
2023-04-23T06:32:40.537Z,3.30
2023-04-23T06:35:09.236Z,3.22
2023-04-23T06:37:37.542Z,3.05
2023-04-23T06:40:06.941Z,3.25
2023-04-23T06:42:34.991Z,3.78
2023-04-23T06:45:20.718Z,3.97
2023-04-23T06:47:50.105Z,3.50
2023-04-23T06:50:18.233Z,3.80
2023-04-23T06:52:46.314Z,3.28
2023-04-23T06:55:14.367Z,3.53
2023-04-23T06:57:42.452Z,3.70
2023-04-23T07:00:11.448Z,3.28
2023-04-23T07:02:42.624Z,3.95
2023-04-23T07:05:11.311Z,3.63
2023-04-23T07:07:40.867Z,3.72
2023-04-23T07:10:10.359Z,3.28
2023-04-23T07:12:39.586Z,3.40
2023-04-23T07:15:09.126Z,3.50
2023-04-23T07:17:37.428Z,2.88
2023-04-23T07:20:06.913Z,3.50
2023-04-23T07:22:35.650Z,3.10
2023-04-23T07:25:05.491Z,3.53
2023-04-23T07:27:52.101Z,2.83
2023-04-23T07:30:21.828Z,3.00
2023-04-23T07:32:50.080Z,3.03
2023-04-23T07:35:18.191Z,3.20
2023-04-23T07:37:56.093Z,2.78
2023-04-23T07:40:25.082Z,3.28
2023-04-23T07:42:53.110Z,3.33
2023-04-23T07:45:21.467Z,2.80
2023-04-23T07:47:50.993Z,2.78
2023-04-23T07:50:19.147Z,2.45
2023-04-23T07:52:47.353Z,2.45
2023-04-23T07:55:15.573Z,3.00
2023-04-23T07:57:43.521Z,2.65
2023-04-23T08:00:12.002Z,2.75
2023-04-23T08:02:40.069Z,2.50
2023-04-23T08:05:08.602Z,2.45
2023-04-23T08:07:37.049Z,2.53
2023-04-23T08:10:06.727Z,2.15
2023-04-23T08:12:36.162Z,2.00
2023-04-23T08:15:04.777Z,2.00
2023-04-23T08:17:39.590Z,1.80
2023-04-23T08:20:08.265Z,1.92
2023-04-23T08:22:36.244Z,1.52
2023-04-23T08:25:04.946Z,1.13
2023-04-23T08:27:33.010Z,1.63
2023-04-23T08:30:00.991Z,1.80
2023-04-23T08:32:29.819Z,1.80
2023-04-23T08:34:58.944Z,1.77
2023-04-23T08:37:30.705Z,2.35
2023-04-23T08:40:00.886Z,2.38
2023-04-23T08:42:42.893Z,2.25
2023-04-23T08:45:11.575Z,2.15
2023-04-23T08:50:30.319Z,2.20
2023-04-23T08:52:58.788Z,1.85
2023-04-23T08:55:26.907Z,2.30
2023-04-23T08:57:58.958Z,1.70
2023-04-23T09:00:30.826Z,1.52
2023-04-23T09:02:59.120Z,1.60
2023-04-23T09:05:28.316Z,1.75
2023-04-23T09:07:58.184Z,1.70
2023-04-23T09:10:26.354Z,1.40
2023-04-23T09:12:54.531Z,1.30
2023-04-23T09:15:22.687Z,1.20
2023-04-23T09:17:51.465Z,1.40
2023-04-23T09:20:19.629Z,0.95
2023-04-23T09:22:50.076Z,1.27
2023-04-23T09:28:11.055Z,1.27
2023-04-23T09:30:46.083Z,1.20
2023-04-23T09:33:35.423Z,1.10
2023-04-23T09:36:15.959Z,0.90
2023-04-23T09:38:44.103Z,0.90
2023-04-23T09:41:44.041Z,0.70
2023-04-23T09:44:14.159Z,1.05
2023-04-23T09:47:12.370Z,1.00
2023-04-23T09:49:48.156Z,1.08
2023-04-23T09:52:39.667Z,1.13
2023-04-23T09:55:08.383Z,1.00
2023-04-23T09:57:41.341Z,0.93
2023-04-23T10:00:23.142Z,1.00
2023-04-23T10:02:52.560Z,1.20
2023-04-23T10:05:27.221Z,0.80
2023-04-23T10:07:59.538Z,0.85
2023-04-23T10:10:27.927Z,1.00
2023-04-23T10:12:57.429Z,1.27
2023-04-23T10:15:27.273Z,0.70
2023-04-23T10:17:56.072Z,0.73
2023-04-23T10:20:24.497Z,0.77
2023-04-23T10:22:54.975Z,0.60
2023-04-23T10:25:24.865Z,0.70
2023-04-23T10:27:55.500Z,0.88
2023-04-23T10:30:23.674Z,1.00
2023-04-23T10:32:51.955Z,0.68
2023-04-23T10:35:20.388Z,0.70
2023-04-23T10:37:49.317Z,0.70
2023-04-23T10:40:24.725Z,0.73
2023-04-23T10:42:53.109Z,0.50
2023-04-23T10:45:25.425Z,1.20
2023-04-23T10:47:57.697Z,0.70
2023-04-23T10:50:27.901Z,0.90
2023-04-23T10:52:58.050Z,0.60
2023-04-23T10:55:33.437Z,0.60
2023-04-23T10:58:05.587Z,1.30
2023-04-23T11:00:46.400Z,0.63
2023-04-23T11:03:38.760Z,0.40
2023-04-23T11:06:15.748Z,0.68
2023-04-23T11:08:54.520Z,0.70
2023-04-23T11:11:40.590Z,0.70
2023-04-23T11:14:16.157Z,0.60
2023-04-23T11:16:44.403Z,0.50
2023-04-23T11:19:13.221Z,0.80
2023-04-23T11:22:02.684Z,0.60
2023-04-23T11:24:44.904Z,0.50
2023-04-23T11:27:17.730Z,0.63
2023-04-23T11:29:47.179Z,0.40
2023-04-23T11:32:17.500Z,0.50
2023-04-23T11:34:47.882Z,0.80
2023-04-23T11:37:17.315Z,0.80
2023-04-23T11:39:47.778Z,0.50
2023-04-23T11:42:16.586Z,0.80
2023-04-23T11:44:45.656Z,0.70
2023-04-23T11:47:16.608Z,0.50
2023-04-23T11:49:45.676Z,0.60
2023-04-23T11:52:15.075Z,0.70
2023-04-23T11:54:43.194Z,0.50
2023-04-23T11:57:11.443Z,0.50
2023-04-23T11:59:39.376Z,0.50
2023-04-23T12:02:07.473Z,0.63
2023-04-23T12:04:36.023Z,0.70
2023-04-23T12:07:12.967Z,0.50
2023-04-23T12:09:51.356Z,0.68
2023-04-23T12:12:19.371Z,0.60
2023-04-23T12:14:47.315Z,0.75
2023-04-23T12:17:15.415Z,0.50
2023-04-23T12:19:45.166Z,0.80
2023-04-23T12:22:13.161Z,0.60
2023-04-23T12:24:51.676Z,0.73
2023-04-23T12:27:22.171Z,0.57
2023-04-23T12:30:03.462Z,0.63
2023-04-23T12:32:34.678Z,0.68
2023-04-23T12:35:06.275Z,0.75
2023-04-23T12:40:23.222Z,0.50
2023-04-23T12:42:51.294Z,0.60
2023-04-23T12:45:19.240Z,0.50
2023-04-23T12:47:47.352Z,0.60
2023-04-23T12:50:33.789Z,0.52
2023-04-23T12:55:48.691Z,0.55
2023-04-23T12:58:16.642Z,0.70
2023-04-23T13:00:44.705Z,0.45
2023-04-23T13:03:15.831Z,0.55
2023-04-23T13:05:43.958Z,0.70
2023-04-23T13:08:12.027Z,0.50
2023-04-23T13:10:40.020Z,0.60
2023-04-23T13:13:08.019Z,0.60
2023-04-23T13:15:36.060Z,0.63
2023-04-23T13:18:04.154Z,0.52
2023-04-23T13:20:32.149Z,1.00
2023-04-23T13:23:00.333Z,0.90
2023-04-23T13:25:28.419Z,0.98
2023-04-23T13:27:56.517Z,0.90
2023-04-23T13:30:24.612Z,0.75
2023-04-23T13:33:11.256Z,0.45
2023-04-23T13:35:39.238Z,0.93
2023-04-23T13:38:07.428Z,0.60
2023-04-23T13:40:36.262Z,0.70
2023-04-23T13:43:04.326Z,0.50
2023-04-23T13:45:32.755Z,0.70
2023-04-23T13:48:02.695Z,0.93
2023-04-23T13:50:31.160Z,0.68
2023-04-23T13:52:59.239Z,1.00
2023-04-23T13:55:45.664Z,0.80
2023-04-23T13:58:32.335Z,0.60
2023-04-23T14:01:00.481Z,0.60
2023-04-23T14:03:28.571Z,0.63
2023-04-23T14:05:56.619Z,0.80
2023-04-23T14:08:24.623Z,0.70
2023-04-23T14:10:52.646Z,0.82
2023-04-23T14:13:20.834Z,0.70
2023-04-23T14:15:49.135Z,0.80
2023-04-23T14:18:17.231Z,0.75
2023-04-23T14:20:45.323Z,0.65
2023-04-23T14:23:28.145Z,0.68
2023-04-23T14:26:03.550Z,0.70
2023-04-23T14:28:40.486Z,0.80
2023-04-23T14:31:08.534Z,0.82
2023-04-23T14:33:36.602Z,0.90
2023-04-23T14:36:04.836Z,0.80
2023-04-23T14:38:32.909Z,0.80
2023-04-23T14:41:01.201Z,0.75
2023-04-23T14:43:29.060Z,0.85
2023-04-23T14:45:57.125Z,0.98
2023-04-23T14:48:25.145Z,0.63
2023-04-23T14:50:53.281Z,0.52
2023-04-23T14:53:21.803Z,0.95
2023-04-23T14:55:49.927Z,0.93
2023-04-23T14:58:17.961Z,1.30
2023-04-23T15:00:46.263Z,1.20
2023-04-23T15:03:14.320Z,1.00
2023-04-23T15:05:43.073Z,0.93
2023-04-23T15:08:11.055Z,1.10
2023-04-23T15:10:39.221Z,0.98
2023-04-23T15:13:35.536Z,0.93
2023-04-23T15:16:07.921Z,0.70
2023-04-23T15:18:36.216Z,0.93
2023-04-23T15:21:04.606Z,0.93
2023-04-23T15:23:32.654Z,0.80
2023-04-23T15:26:00.653Z,1.17
2023-04-23T15:28:28.670Z,0.98
2023-04-23T15:30:56.690Z,0.60
2023-04-23T15:33:43.018Z,0.70
2023-04-23T15:36:11.041Z,0.95
2023-04-23T15:38:39.131Z,0.80
2023-04-23T15:41:07.211Z,1.02
2023-04-23T15:43:35.247Z,0.80
2023-04-23T15:46:03.415Z,0.80
2023-04-23T15:48:31.592Z,1.30
2023-04-23T15:50:59.773Z,0.70
2023-04-23T15:53:28.677Z,1.00
2023-04-23T15:55:56.758Z,0.73
2023-04-23T15:58:24.715Z,0.80
2023-04-23T16:00:52.833Z,0.63
2023-04-23T16:03:21.876Z,0.70
2023-04-23T16:05:51.386Z,0.50
2023-04-23T16:08:19.414Z,0.80
2023-04-23T16:10:47.552Z,0.70
2023-04-23T16:13:15.489Z,0.90
2023-04-23T16:15:43.555Z,0.57
2023-04-23T16:18:11.581Z,0.70
2023-04-23T16:20:39.713Z,0.75
2023-04-23T16:23:07.619Z,0.70
2023-04-23T16:28:22.744Z,0.70
2023-04-23T16:30:50.798Z,0.82
2023-04-23T16:33:18.867Z,0.65
2023-04-23T16:35:46.960Z,0.80
2023-04-23T16:38:14.978Z,0.60
2023-04-23T16:40:45.968Z,0.85
2023-04-23T16:43:14.186Z,1.20
2023-04-23T16:45:42.153Z,1.00
2023-04-23T16:48:14.062Z,0.63
2023-04-23T16:50:43.349Z,0.82
2023-04-23T16:55:56.725Z,0.73
2023-04-23T16:58:24.894Z,0.93
2023-04-23T17:00:52.838Z,0.80
2023-04-23T17:03:21.352Z,0.80
2023-04-23T17:05:55.210Z,0.80
2023-04-23T17:08:24.985Z,1.30
2023-04-23T17:10:53.713Z,0.80
2023-04-23T17:13:22.895Z,0.68
2023-04-23T17:15:50.845Z,0.98
2023-04-23T17:18:18.924Z,1.40
2023-04-23T17:20:46.849Z,0.65
2023-04-23T17:23:15.002Z,0.88
2023-04-23T17:25:42.936Z,1.10
2023-04-23T17:28:29.912Z,0.80
2023-04-23T17:30:57.934Z,0.70
2023-04-23T17:33:26.820Z,1.00
2023-04-23T17:35:57.908Z,0.70
2023-04-23T17:38:26.456Z,0.75
2023-04-23T17:40:54.886Z,0.75
2023-04-23T17:43:22.942Z,0.82
2023-04-23T17:45:50.997Z,0.70
2023-04-23T17:48:20.689Z,0.70
2023-04-23T17:51:08.763Z,0.68
2023-04-23T17:53:36.834Z,0.57
2023-04-23T17:56:04.905Z,0.70
2023-04-23T17:58:32.962Z,0.65
2023-04-23T18:01:01.344Z,0.90
2023-04-23T18:03:30.573Z,0.95
2023-04-23T18:05:58.814Z,1.25
2023-04-23T18:08:26.931Z,0.90
2023-04-23T18:10:55.033Z,1.05
2023-04-23T18:13:23.224Z,0.70
2023-04-23T18:15:51.774Z,0.80
2023-04-23T18:18:21.935Z,0.80
2023-04-23T18:20:52.203Z,1.00
2023-04-23T18:23:22.292Z,1.10
2023-04-23T18:25:50.498Z,0.70
2023-04-23T18:28:18.733Z,0.75
2023-04-23T18:30:46.818Z,0.80
2023-04-23T18:33:41.527Z,1.40
2023-04-23T18:36:31.869Z,0.75
2023-04-23T18:39:00.311Z,0.80
2023-04-23T18:41:31.208Z,0.82
2023-04-23T18:44:00.491Z,0.93
2023-04-23T18:46:31.195Z,1.50
2023-04-23T18:49:05.979Z,0.90
2023-04-23T18:51:42.996Z,0.90
2023-04-23T18:54:15.152Z,0.90
2023-04-23T18:56:43.365Z,1.13
2023-04-23T18:59:11.862Z,2.05
2023-04-23T19:01:40.431Z,0.90
2023-04-23T19:04:09.183Z,0.57
2023-04-23T19:06:38.296Z,0.90
2023-04-23T19:09:24.696Z,1.00
2023-04-23T19:11:53.234Z,1.40
2023-04-23T19:14:21.220Z,0.88
2023-04-23T19:16:51.240Z,0.80
2023-04-23T19:19:19.302Z,0.70
2023-04-23T19:21:47.271Z,0.82
2023-04-23T19:24:15.289Z,0.90
2023-04-23T19:26:43.257Z,0.80
2023-04-23T19:29:11.234Z,1.25
2023-04-23T19:31:42.859Z,0.63
2023-04-23T19:34:11.357Z,1.02
2023-04-23T19:36:58.113Z,1.00
2023-04-23T19:39:45.082Z,1.50
2023-04-23T19:42:13.257Z,0.85
2023-04-23T19:44:41.195Z,1.63
2023-04-23T19:47:09.206Z,1.00
2023-04-23T19:49:37.311Z,1.00
2023-04-23T19:52:05.675Z,0.95
2023-04-23T19:54:33.748Z,2.35
2023-04-23T19:57:02.384Z,1.13
2023-04-23T19:59:30.417Z,0.75
2023-04-23T20:01:58.398Z,0.75
2023-04-23T20:04:26.707Z,1.40
2023-04-23T20:06:54.868Z,1.00
2023-04-23T20:09:24.938Z,0.82
2023-04-23T20:11:53.364Z,0.65
2023-04-23T20:14:21.414Z,0.90
2023-04-23T20:17:08.468Z,1.02
2023-04-23T20:19:37.017Z,0.70
2023-04-23T20:22:05.027Z,1.10
2023-04-23T20:24:33.818Z,0.77
2023-04-23T20:27:01.984Z,0.80
2023-04-23T20:29:31.059Z,0.93
2023-04-23T20:31:59.513Z,1.25
2023-04-23T20:34:27.722Z,0.82
2023-04-23T20:36:59.047Z,0.98
2023-04-23T20:39:27.131Z,1.40
2023-04-23T20:41:55.638Z,0.80
2023-04-23T20:44:24.134Z,0.70
2023-04-23T20:46:52.512Z,0.80
2023-04-23T20:49:40.512Z,0.70
2023-04-23T20:52:08.944Z,0.70
2023-04-23T20:57:22.525Z,0.80
2023-04-23T21:00:12.216Z,1.00
2023-04-23T21:02:41.084Z,0.95
2023-04-23T21:05:12.235Z,0.95
2023-04-23T21:07:40.532Z,1.20
2023-04-23T21:10:08.798Z,1.17
2023-04-23T21:12:37.093Z,0.90
2023-04-23T21:15:05.557Z,0.85
2023-04-23T21:17:33.409Z,0.57
2023-04-23T21:20:01.545Z,0.85
2023-04-23T21:22:29.941Z,0.95
2023-04-23T21:24:58.145Z,0.80
2023-04-23T21:27:26.119Z,0.90
2023-04-23T21:29:54.181Z,0.65
2023-04-23T21:32:22.212Z,1.17
2023-04-23T21:34:50.323Z,1.33
2023-04-23T21:37:18.379Z,0.93
2023-04-23T21:39:46.402Z,1.13
2023-04-23T21:42:14.406Z,1.73
2023-04-23T21:45:01.073Z,1.92
2023-04-23T21:47:29.080Z,1.67
2023-04-23T21:52:43.226Z,1.23
2023-04-23T21:55:13.052Z,1.42
2023-04-23T21:57:41.012Z,1.00
2023-04-23T22:00:14.086Z,0.80
2023-04-23T22:02:47.056Z,1.65
2023-04-23T22:05:21.700Z,0.90
2023-04-23T22:08:09.810Z,1.42
2023-04-23T22:13:28.379Z,1.13
2023-04-23T22:15:57.572Z,1.23
2023-04-23T22:18:26.369Z,1.20
2023-04-23T22:20:54.515Z,1.08
2023-04-23T22:23:22.730Z,1.10
2023-04-23T22:25:50.848Z,0.85
2023-04-23T22:28:18.763Z,0.90
2023-04-23T22:30:46.805Z,1.00
2023-04-23T22:33:14.777Z,1.05
2023-04-23T22:36:01.491Z,1.23
2023-04-23T22:38:29.767Z,1.25
2023-04-23T22:40:57.976Z,1.60
2023-04-23T22:43:25.965Z,1.40
2023-04-23T22:45:54.155Z,1.20
2023-04-23T22:48:22.281Z,1.38
2023-04-23T22:50:51.271Z,1.30
2023-04-23T22:53:19.846Z,1.17
2023-04-23T22:55:47.990Z,1.10
2023-04-23T22:58:16.421Z,1.45
2023-04-23T23:00:44.504Z,1.25
2023-04-23T23:03:12.829Z,1.88
2023-04-23T23:05:40.960Z,1.25
2023-04-23T23:08:09.028Z,1.52
2023-04-23T23:10:37.184Z,1.05
2023-04-23T23:13:05.444Z,1.20
2023-04-23T23:15:33.523Z,1.48
2023-04-23T23:18:01.569Z,0.90
2023-04-23T23:20:48.130Z,1.05
2023-04-23T23:23:16.177Z,1.00
2023-04-23T23:25:44.192Z,1.05
2023-04-23T23:28:12.084Z,1.05
2023-04-23T23:30:40.237Z,0.90
2023-04-23T23:33:08.230Z,1.20
2023-04-23T23:35:36.766Z,1.20
2023-04-23T23:38:05.128Z,1.10
2023-04-23T23:40:33.189Z,1.00
2023-04-23T23:43:01.121Z,0.85
2023-04-23T23:45:29.281Z,0.90
2023-04-23T23:47:57.498Z,0.90
2023-04-23T23:50:26.390Z,1.05
2023-04-23T23:52:54.720Z,1.00
2023-04-23T23:55:22.697Z,1.27
2023-04-23T23:58:09.141Z,1.00
